Accueil
METAR-TAF:

METAR-TAF

Aéroports :

Base aérienne de Beauvechain

Beauvechain, Belgique

latitude: 50-45N, longitude: 004-46E, altitude: 105 m

Observation

Le bulletin a été fait il y a 1 heure et 12 minutes, à 01:25 UTC
Vent 6 kt de nord
Température 7°C
Humidité 87%
Pression 1029 hPa
Visibilité 10 km ou plus

METAR: EBBE 240125Z AUTO 36006KT 9999 BKN017/// BKN035/// 07/05 Q1029 WHT

Heure: 03:37 (02:37 UTC)

Prévision

Le bulletin a été fait il y a 10 heures et 56 minutes, à 15:41 UTC
Prévision valable du 22 à 19 UTC au 23 à 07 UTC
Vent 6 kt de sud
Visibilité 10 km ou plus
Quelques nuages à une hauteur de 25000 ft
Evoluant progressivement
du 22 à 22 UTC au 22 à 24 UTC
Visibilité: 4000 m
brume
Evoluant progressivement
du 23 à 00 UTC au 23 à 02 UTC
Visibilité: 0500 m
brouillard

TAF: EBBE 221541Z 2219/2307 19006KT 9999 FEW250 BECMG 2222/2224 4000 BR BECMG 2300/2302 0500 FG

Observations et prévisions météorologiques de plus de 4000 aéroports (messages METAR et TAF).

Les stations disponibles sont représentées par des disques jaunes et rouges sur la carte.

Passer la souris dessus pour voir le nom de la station.

Cliquer dessus pour voir les observations et prévisions météorologiques.

Pour changer de carte: cliquez sur les boutons verts avec une croix noire pour zoomer, sur le bouton vert avec un tiret pour effectuer un zoom arrière, ou sur les flèches vertes pour les cartes adjacentes.


METAR-TAF: